• Join FlightAware (Why Join?)
  • Login
  • US Flag 
12:53PM EDT


 

Airport Tracker/Info


-or-


 

Live Flight TrackerFlight Track Log ✈ AWE3988 ✈ 22-Jun-2013 ✈ KMHT - KPHL

Flight Track Log - Related Links

Times and Time Zones

All times are in EDT time to prevent confusion due to time zone crossing. See the AWE3988 flight status page for this flight to view local times or setup timezone preferences in your user account.

Time Position Orientation Groundspeed Altitude Reporting Facility
EDT Latitude Longitude Course Direction KTS MPH feet Rate Location/Type
04:08PM 42.9167 -71.5167 270° West 184 212 2,700  Level KA90
04:09PM 42.9425 -71.8324 279° West  Level FlightAware Approximate
04:09PM 42.9167 -71.6000 270° West 251 289 4,300  Level KA90
04:09PM 42.9353 -71.6433 300° West 274 315 5,900 2,700 Climbing Boston Center
04:10PM 42.9500 -71.9660 270° West  Level FlightAware Approximate
04:10PM 43.0106 -71.6878 337° Northwest 281 323 8,600  Level Boston Center
04:11PM 42.9501 -72.1003 270° West  Level FlightAware Approximate
04:11PM 43.0589 -71.7439 320° Northwest 264 304 11,000  Level Boston Center
04:12PM 42.9508 -72.2347 273° West  Level FlightAware Approximate
04:12PM 43.0594 -71.8519 270° West 241 277 13,500  Level Boston Center
04:13PM 43.0558 -71.9486 267° West 272 313 15,200 1,380 Climbing Boston Center
04:14PM 43.0522 -72.0822 268° West 310 357 16,300 1,260 Climbing Boston Center
04:15PM 43.0461 -72.1958 266° West 333 383 17,800 1,440 Climbing Boston Center
04:16PM 43.0486 -72.3292 272° West 333 383 19,200 1,320 Climbing Boston Center
04:17PM 43.0403 -72.4600 265° West 333 383 20,500 1,140 Climbing Boston Center
04:18PM 43.0317 -72.5878 265° West 333 383 21,500 900 Climbing Boston Center
04:19PM 42.9878 -72.6983 242° Southwest 340 391 22,300 900 Climbing Boston Center
04:20PM 42.9436 -72.8258 245° Southwest 356 410 23,300 840 Climbing Boston Center
04:21PM 42.8994 -72.9531 245° Southwest 370 426 24,000 300 Climbing Boston Center
04:22PM 42.8528 -73.0972 246° West 375 432 24,000  Level Boston Center
04:23PM 42.8103 -73.2211 245° Southwest 375 432 24,000  Level Boston Center
04:24PM 42.7656 -73.3450 244° Southwest 375 432 24,000  Level Boston Center
04:25PM 42.7231 -73.4717 245° Southwest 375 432 24,000  Level Boston Center
04:26PM 42.6781 -73.5981 244° Southwest 375 432 24,000  Level Boston Center
04:27PM 42.6414 -73.6989 244° Southwest 375 432 24,000  Level Boston Center
04:28PM 42.5875 -73.8472 244° Southwest 380 437 24,000  Level Boston Center
04:29PM 42.5422 -73.9731 244° Southwest 380 437 24,000  Level Boston Center
04:30PM 42.4967 -74.0986 244° Southwest 380 437 24,000  Level Boston Center
04:31PM 42.4511 -74.2242 244° Southwest 380 437 24,000  Level Boston Center
04:32PM 42.4053 -74.3522 244° Southwest 380 437 24,000  Level Boston Center
04:33PM 42.3614 -74.4661 242° Southwest 380 437 24,000  Level Boston Center
04:34PM 42.3153 -74.5908 243° Southwest 380 437 24,000 -300 Level Boston Center
04:35PM 42.2692 -74.7183 244° Southwest 380 437 23,400 -960 Descending Boston Center
04:36PM 42.2206 -74.8483 243° Southwest 380 437 22,100 -1,260 Descending Boston Center
04:38PM 42.0542 -75.0611 224° Southwest 362 417 19,400 -1,020 Descending New York Center
04:39PM 41.9725 -75.1283 211° Southwest 362 417 19,000 -240 Descending New York Center
04:40PM 41.8931 -75.1928 211° Southwest 362 417 19,000 -60 Level New York Center
04:41PM 41.8092 -75.2622 212° Southwest 367 422 18,900 -960 Descending New York Center
04:42PM 41.7169 -75.3367 211° Southwest 367 422 17,100 -1,800 Descending New York Center
04:43PM 41.6375 -75.4006 211° Southwest 353 406 15,400 -1,800 Descending New York Center
04:44PM 41.5664 -75.4567 211° Southwest 329 379 13,600 -1,740 Descending New York Center
04:45PM 41.5019 -75.5075 211° Southwest 305 351 12,000 -840 Descending New York Center
04:46PM 41.4286 -75.5689 212° Southwest 294 338 12,000  Level New York Center
04:47PM 41.3642 -75.6167 209° Southwest 294 338 12,000  Level New York Center
04:48PM 41.2911 -75.6750 211° Southwest 304 350 12,000  Level New York Center
04:49PM 41.1967 -75.6900 187° South 316 364 12,000  Level New York Center
04:50PM 41.1156 -75.6869 178° South 316 364 12,000  Level New York Center
04:51PM 41.0281 -75.6861 180° South 316 364 12,000 -360 Level New York Center
04:52PM 40.9383 -75.6878 181° South 321 369 11,300 -1,080 Descending New York Center
04:53PM 40.8489 -75.6869 180° South 307 353 9,900 -660 Descending New York Center
04:54PM 40.7675 -75.6867 180° South 301 346 10,000  Climbing New York Center
04:55PM 40.6947 -75.6867 180° South 296 341 10,000  Level New York Center
04:56PM 40.6136 -75.6836 178° South 296 341 10,000 -60 Level New York Center
04:57PM 40.5436 -75.6106 142° Southeast 275 316 9,900  Descending New York Center
04:58PM 40.5011 -75.5283 124° Southeast 286 329 10,000  Climbing New York Center
04:59PM 40.4528 -75.4350 124° Southeast 313 360 10,000 -60 Level New York Center
05:00PM 40.3889 -75.3597 138° Southeast 313 360 9,900 -1,140 Descending New York Center
05:01PM 40.3122 -75.2975 148° Southeast 301 346 7,800 -1,860 Descending New York Center
05:02PM 40.2453 -75.2469 150° Southeast 290 334 6,200 -960 Descending New York Center
05:03PM 40.1844 -75.2022 151° Southeast 279 321 6,000 -120 Descending New York Center
05:04PM 40.1139 -75.1433 147° Southeast 279 321 6,000 -60 Level New York Center
05:05PM 40.0678 -75.0944 141° Southeast 258 297 5,900 -300 Descending New York Center
05:06PM 40.0281 -75.0350 131° Southeast 213 245 5,400 -960 Descending New York Center
05:07PM 39.9917 -75.0083 151° Southeast 184 212 4,000 -1,260 Descending New York Center
05:09PM 39.9333 -75.0500 209° Southwest 170 196 2,600 -1,140 Descending Philadelphia TRACON